Spring Creek, South Dakota
Current Conditions -  °F | °C
As of 4:52 PM on Friday 31 Oct 2014 (Local Time) from KVTN Reporting Station
Clear Clear  
Wind Chill:   Ceiling: Unl
Heat Index:   Visibility: 10mi
Dew Point: -11°   Wind: 24mph
Humidity: 25%   Direction: 160°SSE
Pressure: 30.29"   Gusts: 30mph
Location:  43.1381°N, 100.965°W
Report Text: KVTN 312152Z AUTO 16021G26KT 10SM CLR 08/M11 A3029 RMK AO2 PK WND 16026/2105 SLP275 T00781111
Loading
Personal Weather Stations






























Interactive Weather Map
Tropical Storm Tracking
New forecast layout! Learn more

10-Day Weather Forecast

Advertisements
Track Severe Weather on mobile